sensor_id;sensor_type;location;lat;lon;timestamp;P1;durP1;ratioP1;P2;durP2;ratioP2
75912;SDS011;64592;52.168;21.040;2023-11-25T00:02:02;6.13;;;3.35;;
75912;SDS011;64592;52.168;21.040;2023-11-25T00:07:08;5.68;;;3.13;;
75912;SDS011;64592;52.168;21.040;2023-11-25T00:12:10;5.93;;;3.00;;
75912;SDS011;64592;52.168;21.040;2023-11-25T00:17:12;4.60;;;3.22;;
75912;SDS011;64592;52.168;21.040;2023-11-25T00:22:15;4.35;;;2.88;;
75912;SDS011;64592;52.168;21.040;2023-11-25T00:27:16;9.05;;;2.85;;
75912;SDS011;64592;52.168;21.040;2023-11-25T00:32:18;6.43;;;3.03;;
75912;SDS011;64592;52.168;21.040;2023-11-25T00:37:21;10.50;;;3.70;;
75912;SDS011;64592;52.168;21.040;2023-11-25T00:42:23;8.30;;;3.75;;
75912;SDS011;64592;52.168;21.040;2023-11-25T00:47:25;9.50;;;4.03;;
75912;SDS011;64592;52.168;21.040;2023-11-25T00:52:29;7.82;;;2.97;;
75912;SDS011;64592;52.168;21.040;2023-11-25T00:57:30;4.50;;;2.97;;
75912;SDS011;64592;52.168;21.040;2023-11-25T01:02:32;5.38;;;3.60;;
75912;SDS011;64592;52.168;21.040;2023-11-25T01:07:35;7.05;;;3.30;;
75912;SDS011;64592;52.168;21.040;2023-11-25T01:12:37;5.78;;;3.88;;
75912;SDS011;64592;52.168;21.040;2023-11-25T01:17:40;5.70;;;3.13;;
75912;SDS011;64592;52.168;21.040;2023-11-25T01:22:43;8.57;;;2.97;;
75912;SDS011;64592;52.168;21.040;2023-11-25T01:27:47;7.55;;;3.70;;
75912;SDS011;64592;52.168;21.040;2023-11-25T01:32:48;7.07;;;3.88;;
75912;SDS011;64592;52.168;21.040;2023-11-25T01:37:51;8.52;;;3.25;;
75912;SDS011;64592;52.168;21.040;2023-11-25T01:42:55;7.32;;;2.97;;
75912;SDS011;64592;52.168;21.040;2023-11-25T01:47:58;5.55;;;3.75;;
75912;SDS011;64592;52.168;21.040;2023-11-25T01:53:03;8.02;;;3.30;;
75912;SDS011;64592;52.168;21.040;2023-11-25T01:58:07;7.70;;;3.53;;
75912;SDS011;64592;52.168;21.040;2023-11-25T02:03:10;8.07;;;3.90;;
75912;SDS011;64592;52.168;21.040;2023-11-25T02:08:14;7.93;;;3.55;;
75912;SDS011;64592;52.168;21.040;2023-11-25T02:13:16;5.93;;;3.63;;
75912;SDS011;64592;52.168;21.040;2023-11-25T02:18:18;6.80;;;3.42;;
75912;SDS011;64592;52.168;21.040;2023-11-25T02:23:22;10.13;;;4.03;;
75912;SDS011;64592;52.168;21.040;2023-11-25T02:28:23;6.03;;;3.65;;
75912;SDS011;64592;52.168;21.040;2023-11-25T02:33:28;3.92;;;2.50;;
75912;SDS011;64592;52.168;21.040;2023-11-25T02:38:35;8.60;;;4.00;;
75912;SDS011;64592;52.168;21.040;2023-11-25T02:43:37;7.45;;;3.13;;
75912;SDS011;64592;52.168;21.040;2023-11-25T02:48:39;4.45;;;2.92;;
75912;SDS011;64592;52.168;21.040;2023-11-25T02:53:42;10.30;;;4.18;;
75912;SDS011;64592;52.168;21.040;2023-11-25T02:58:44;7.03;;;2.97;;
75912;SDS011;64592;52.168;21.040;2023-11-25T03:03:46;7.38;;;3.00;;
75912;SDS011;64592;52.168;21.040;2023-11-25T03:08:50;5.60;;;3.25;;
75912;SDS011;64592;52.168;21.040;2023-11-25T03:13:51;4.35;;;2.92;;
75912;SDS011;64592;52.168;21.040;2023-11-25T03:18:53;6.13;;;3.50;;
75912;SDS011;64592;52.168;21.040;2023-11-25T03:23:56;6.22;;;3.50;;
75912;SDS011;64592;52.168;21.040;2023-11-25T03:28:59;6.60;;;3.38;;
75912;SDS011;64592;52.168;21.040;2023-11-25T03:34:01;4.45;;;3.13;;
75912;SDS011;64592;52.168;21.040;2023-11-25T03:39:06;5.80;;;3.60;;
75912;SDS011;64592;52.168;21.040;2023-11-25T03:44:09;4.95;;;3.00;;
75912;SDS011;64592;52.168;21.040;2023-11-25T03:49:11;6.05;;;2.95;;
75912;SDS011;64592;52.168;21.040;2023-11-25T03:54:14;8.18;;;3.22;;
75912;SDS011;64592;52.168;21.040;2023-11-25T03:59:15;6.38;;;3.08;;
75912;SDS011;64592;52.168;21.040;2023-11-25T04:04:17;6.78;;;3.33;;
75912;SDS011;64592;52.168;21.040;2023-11-25T04:09:20;5.75;;;3.90;;
75912;SDS011;64592;52.168;21.040;2023-11-25T04:14:23;3.92;;;2.45;;
75912;SDS011;64592;52.168;21.040;2023-11-25T04:19:25;4.80;;;2.67;;
75912;SDS011;64592;52.168;21.040;2023-11-25T04:24:29;4.45;;;2.80;;
75912;SDS011;64592;52.168;21.040;2023-11-25T04:29:30;5.93;;;3.50;;
75912;SDS011;64592;52.168;21.040;2023-11-25T04:34:33;5.82;;;3.00;;
75912;SDS011;64592;52.168;21.040;2023-11-25T04:39:36;4.78;;;3.40;;
75912;SDS011;64592;52.168;21.040;2023-11-25T04:44:38;5.70;;;3.40;;
75912;SDS011;64592;52.168;21.040;2023-11-25T04:49:39;6.07;;;3.70;;
75912;SDS011;64592;52.168;21.040;2023-11-25T04:54:43;7.07;;;3.30;;
75912;SDS011;64592;52.168;21.040;2023-11-25T04:59:46;5.72;;;3.53;;
75912;SDS011;64592;52.168;21.040;2023-11-25T05:04:48;5.18;;;3.05;;
75912;SDS011;64592;52.168;21.040;2023-11-25T05:09:51;4.70;;;2.80;;
75912;SDS011;64592;52.168;21.040;2023-11-25T05:14:52;5.53;;;3.47;;
75912;SDS011;64592;52.168;21.040;2023-11-25T05:19:54;5.20;;;2.88;;
75912;SDS011;64592;52.168;21.040;2023-11-25T05:24:57;5.20;;;2.95;;
75912;SDS011;64592;52.168;21.040;2023-11-25T05:29:59;6.95;;;3.97;;
75912;SDS011;64592;52.168;21.040;2023-11-25T05:35:01;7.72;;;4.35;;
75912;SDS011;64592;52.168;21.040;2023-11-25T05:40:04;6.85;;;3.80;;
75912;SDS011;64592;52.168;21.040;2023-11-25T05:45:11;5.97;;;3.85;;
75912;SDS011;64592;52.168;21.040;2023-11-25T05:50:15;8.45;;;4.05;;
75912;SDS011;64592;52.168;21.040;2023-11-25T05:55:21;6.63;;;4.05;;
75912;SDS011;64592;52.168;21.040;2023-11-25T06:00:23;6.38;;;4.40;;
75912;SDS011;64592;52.168;21.040;2023-11-25T06:05:25;9.65;;;4.85;;
75912;SDS011;64592;52.168;21.040;2023-11-25T06:10:29;8.75;;;4.28;;
75912;SDS011;64592;52.168;21.040;2023-11-25T06:15:30;9.43;;;4.75;;
75912;SDS011;64592;52.168;21.040;2023-11-25T06:20:32;8.68;;;3.90;;
75912;SDS011;64592;52.168;21.040;2023-11-25T06:25:36;7.40;;;4.10;;
75912;SDS011;64592;52.168;21.040;2023-11-25T06:30:37;7.22;;;4.20;;
75912;SDS011;64592;52.168;21.040;2023-11-25T06:35:39;8.18;;;4.80;;
75912;SDS011;64592;52.168;21.040;2023-11-25T06:40:44;7.65;;;3.80;;
75912;SDS011;64592;52.168;21.040;2023-11-25T06:45:47;7.80;;;3.55;;
75912;SDS011;64592;52.168;21.040;2023-11-25T06:50:49;8.27;;;4.28;;
75912;SDS011;64592;52.168;21.040;2023-11-25T06:55:52;7.97;;;3.58;;
75912;SDS011;64592;52.168;21.040;2023-11-25T07:00:53;5.88;;;3.42;;
75912;SDS011;64592;52.168;21.040;2023-11-25T07:05:57;4.75;;;3.20;;
75912;SDS011;64592;52.168;21.040;2023-11-25T07:11:00;6.47;;;2.88;;
75912;SDS011;64592;52.168;21.040;2023-11-25T07:16:05;4.90;;;2.90;;
75912;SDS011;64592;52.168;21.040;2023-11-25T07:21:08;3.83;;;2.00;;
75912;SDS011;64592;52.168;21.040;2023-11-25T07:26:14;4.20;;;2.55;;
75912;SDS011;64592;52.168;21.040;2023-11-25T07:31:16;3.78;;;2.58;;
75912;SDS011;64592;52.168;21.040;2023-11-25T07:36:17;4.95;;;2.80;;
75912;SDS011;64592;52.168;21.040;2023-11-25T07:41:20;4.35;;;2.45;;
75912;SDS011;64592;52.168;21.040;2023-11-25T07:46:22;5.40;;;2.65;;
75912;SDS011;64592;52.168;21.040;2023-11-25T07:51:24;6.20;;;3.08;;
75912;SDS011;64592;52.168;21.040;2023-11-25T07:56:27;4.20;;;2.92;;
75912;SDS011;64592;52.168;21.040;2023-11-25T08:01:28;4.10;;;2.42;;
75912;SDS011;64592;52.168;21.040;2023-11-25T08:06:31;4.82;;;2.70;;
75912;SDS011;64592;52.168;21.040;2023-11-25T08:11:34;3.50;;;2.20;;
75912;SDS011;64592;52.168;21.040;2023-11-25T08:16:35;4.95;;;2.17;;
75912;SDS011;64592;52.168;21.040;2023-11-25T08:21:37;5.40;;;2.47;;
75912;SDS011;64592;52.168;21.040;2023-11-25T08:26:40;3.80;;;2.58;;
75912;SDS011;64592;52.168;21.040;2023-11-25T08:31:42;4.28;;;2.08;;
75912;SDS011;64592;52.168;21.040;2023-11-25T08:36:43;4.00;;;2.53;;
75912;SDS011;64592;52.168;21.040;2023-11-25T08:41:54;2.17;;;1.95;;
75912;SDS011;64592;52.168;21.040;2023-11-25T08:46:57;5.10;;;2.30;;
75912;SDS011;64592;52.168;21.040;2023-11-25T08:51:59;3.60;;;1.80;;
75912;SDS011;64592;52.168;21.040;2023-11-25T08:57:02;5.55;;;2.88;;
75912;SDS011;64592;52.168;21.040;2023-11-25T09:02:07;3.42;;;2.20;;
75912;SDS011;64592;52.168;21.040;2023-11-25T09:07:12;2.95;;;2.03;;
75912;SDS011;64592;52.168;21.040;2023-11-25T09:12:16;3.38;;;2.25;;
75912;SDS011;64592;52.168;21.040;2023-11-25T09:17:18;4.03;;;2.92;;
75912;SDS011;64592;52.168;21.040;2023-11-25T09:22:21;5.53;;;3.10;;
75912;SDS011;64592;52.168;21.040;2023-11-25T09:27:24;4.15;;;3.05;;
75912;SDS011;64592;52.168;21.040;2023-11-25T09:32:25;3.97;;;2.63;;
75912;SDS011;64592;52.168;21.040;2023-11-25T09:37:28;3.95;;;2.60;;
75912;SDS011;64592;52.168;21.040;2023-11-25T09:42:32;4.60;;;3.30;;
75912;SDS011;64592;52.168;21.040;2023-11-25T09:47:34;4.90;;;2.92;;
75912;SDS011;64592;52.168;21.040;2023-11-25T09:52:39;10.82;;;4.50;;
75912;SDS011;64592;52.168;21.040;2023-11-25T09:57:47;6.60;;;3.65;;
75912;SDS011;64592;52.168;21.040;2023-11-25T10:02:51;5.32;;;3.20;;
75912;SDS011;64592;52.168;21.040;2023-11-25T10:07:54;10.73;;;5.30;;
75912;SDS011;64592;52.168;21.040;2023-11-25T10:12:57;7.65;;;3.92;;
75912;SDS011;64592;52.168;21.040;2023-11-25T10:18:00;8.27;;;4.45;;
75912;SDS011;64592;52.168;21.040;2023-11-25T10:23:02;8.25;;;4.60;;
75912;SDS011;64592;52.168;21.040;2023-11-25T10:28:05;5.88;;;4.03;;
75912;SDS011;64592;52.168;21.040;2023-11-25T10:33:09;7.40;;;4.20;;
75912;SDS011;64592;52.168;21.040;2023-11-25T10:38:12;8.38;;;5.50;;
75912;SDS011;64592;52.168;21.040;2023-11-25T10:43:15;8.82;;;4.57;;
75912;SDS011;64592;52.168;21.040;2023-11-25T10:48:17;5.10;;;3.78;;
75912;SDS011;64592;52.168;21.040;2023-11-25T10:53:19;7.57;;;5.18;;
75912;SDS011;64592;52.168;21.040;2023-11-25T10:58:24;9.23;;;5.50;;
75912;SDS011;64592;52.168;21.040;2023-11-25T11:03:32;6.97;;;4.97;;
75912;SDS011;64592;52.168;21.040;2023-11-25T11:08:51;5.00;;;3.78;;
75912;SDS011;64592;52.168;21.040;2023-11-25T11:13:55;8.23;;;4.47;;
75912;SDS011;64592;52.168;21.040;2023-11-25T11:19:02;8.00;;;5.28;;
75912;SDS011;64592;52.168;21.040;2023-11-25T11:24:04;8.02;;;4.60;;
75912;SDS011;64592;52.168;21.040;2023-11-25T11:29:12;6.82;;;4.72;;
75912;SDS011;64592;52.168;21.040;2023-11-25T11:34:19;5.78;;;4.03;;
75912;SDS011;64592;52.168;21.040;2023-11-25T11:39:30;7.43;;;4.95;;
75912;SDS011;64592;52.168;21.040;2023-11-25T11:44:44;7.35;;;5.28;;
75912;SDS011;64592;52.168;21.040;2023-11-25T11:49:55;5.80;;;3.17;;
75912;SDS011;64592;52.168;21.040;2023-11-25T11:54:57;7.75;;;4.85;;
75912;SDS011;64592;52.168;21.040;2023-11-25T12:00:39;6.40;;;3.80;;
75912;SDS011;64592;52.168;21.040;2023-11-25T12:05:41;5.35;;;3.90;;
75912;SDS011;64592;52.168;21.040;2023-11-25T12:10:43;7.72;;;4.30;;
75912;SDS011;64592;52.168;21.040;2023-11-25T12:15:46;5.53;;;4.20;;
75912;SDS011;64592;52.168;21.040;2023-11-25T12:20:48;6.25;;;4.03;;
75912;SDS011;64592;52.168;21.040;2023-11-25T12:25:49;6.20;;;3.42;;
75912;SDS011;64592;52.168;21.040;2023-11-25T12:30:52;4.82;;;3.53;;
75912;SDS011;64592;52.168;21.040;2023-11-25T12:35:55;5.10;;;3.70;;
75912;SDS011;64592;52.168;21.040;2023-11-25T12:40:56;7.43;;;3.85;;
75912;SDS011;64592;52.168;21.040;2023-11-25T12:46:02;3.95;;;2.97;;
75912;SDS011;64592;52.168;21.040;2023-11-25T12:51:10;6.50;;;4.20;;
75912;SDS011;64592;52.168;21.040;2023-11-25T12:56:13;6.85;;;4.03;;
75912;SDS011;64592;52.168;21.040;2023-11-25T13:01:17;5.25;;;4.07;;
75912;SDS011;64592;52.168;21.040;2023-11-25T13:06:24;5.72;;;4.70;;
75912;SDS011;64592;52.168;21.040;2023-11-25T13:11:26;6.25;;;3.88;;
75912;SDS011;64592;52.168;21.040;2023-11-25T13:16:29;6.13;;;3.47;;
75912;SDS011;64592;52.168;21.040;2023-11-25T13:21:30;7.22;;;3.38;;
75912;SDS011;64592;52.168;21.040;2023-11-25T13:26:33;6.20;;;3.90;;
75912;SDS011;64592;52.168;21.040;2023-11-25T13:31:36;4.93;;;3.50;;
75912;SDS011;64592;52.168;21.040;2023-11-25T13:36:39;5.45;;;3.78;;
75912;SDS011;64592;52.168;21.040;2023-11-25T13:41:42;9.65;;;4.57;;
75912;SDS011;64592;52.168;21.040;2023-11-25T13:46:46;5.88;;;3.90;;
75912;SDS011;64592;52.168;21.040;2023-11-25T13:51:48;4.88;;;3.15;;
75912;SDS011;64592;52.168;21.040;2023-11-25T13:56:50;6.45;;;4.60;;
75912;SDS011;64592;52.168;21.040;2023-11-25T14:01:53;6.68;;;4.35;;
75912;SDS011;64592;52.168;21.040;2023-11-25T14:06:55;6.70;;;4.30;;
75912;SDS011;64592;52.168;21.040;2023-11-25T14:11:59;6.85;;;3.38;;
75912;SDS011;64592;52.168;21.040;2023-11-25T14:17:03;4.95;;;3.10;;
75912;SDS011;64592;52.168;21.040;2023-11-25T14:22:10;7.82;;;4.32;;
75912;SDS011;64592;52.168;21.040;2023-11-25T14:27:12;3.92;;;3.08;;
75912;SDS011;64592;52.168;21.040;2023-11-25T14:32:15;9.05;;;3.30;;
75912;SDS011;64592;52.168;21.040;2023-11-25T14:37:17;4.30;;;3.47;;
75912;SDS011;64592;52.168;21.040;2023-11-25T14:42:19;5.38;;;3.40;;
75912;SDS011;64592;52.168;21.040;2023-11-25T14:47:25;4.57;;;3.15;;
75912;SDS011;64592;52.168;21.040;2023-11-25T14:52:27;5.18;;;3.78;;
75912;SDS011;64592;52.168;21.040;2023-11-25T14:57:28;6.95;;;3.13;;
75912;SDS011;64592;52.168;21.040;2023-11-25T15:02:31;5.22;;;3.47;;
75912;SDS011;64592;52.168;21.040;2023-11-25T15:07:33;8.68;;;3.53;;
75912;SDS011;64592;52.168;21.040;2023-11-25T15:12:35;4.40;;;2.80;;
75912;SDS011;64592;52.168;21.040;2023-11-25T15:17:38;5.15;;;3.65;;
75912;SDS011;64592;52.168;21.040;2023-11-25T15:22:40;6.93;;;3.10;;
75912;SDS011;64592;52.168;21.040;2023-11-25T15:27:42;5.07;;;2.95;;
75912;SDS011;64592;52.168;21.040;2023-11-25T15:32:44;5.95;;;3.00;;
75912;SDS011;64592;52.168;21.040;2023-11-25T15:37:46;6.75;;;2.80;;
75912;SDS011;64592;52.168;21.040;2023-11-25T15:42:48;7.07;;;3.45;;
75912;SDS011;64592;52.168;21.040;2023-11-25T15:47:51;5.78;;;3.63;;
75912;SDS011;64592;52.168;21.040;2023-11-25T15:52:53;5.85;;;2.90;;
75912;SDS011;64592;52.168;21.040;2023-11-25T15:57:54;7.35;;;3.85;;
75912;SDS011;64592;52.168;21.040;2023-11-25T16:02:58;6.88;;;3.33;;
75912;SDS011;64592;52.168;21.040;2023-11-25T16:08:00;7.47;;;3.95;;
75912;SDS011;64592;52.168;21.040;2023-11-25T16:13:01;9.82;;;4.13;;
75912;SDS011;64592;52.168;21.040;2023-11-25T16:18:06;5.10;;;4.43;;
75912;SDS011;64592;52.168;21.040;2023-11-25T16:23:08;5.80;;;3.83;;
75912;SDS011;64592;52.168;21.040;2023-11-25T16:28:09;4.55;;;3.55;;
75912;SDS011;64592;52.168;21.040;2023-11-25T16:33:12;6.28;;;3.33;;
75912;SDS011;64592;52.168;21.040;2023-11-25T16:38:14;11.48;;;4.10;;
75912;SDS011;64592;52.168;21.040;2023-11-25T16:43:18;8.70;;;3.15;;
75912;SDS011;64592;52.168;21.040;2023-11-25T16:48:22;7.38;;;3.22;;
75912;SDS011;64592;52.168;21.040;2023-11-25T16:53:25;6.50;;;3.08;;
75912;SDS011;64592;52.168;21.040;2023-11-25T16:58:29;5.00;;;3.05;;
75912;SDS011;64592;52.168;21.040;2023-11-25T17:03:31;6.28;;;3.20;;
75912;SDS011;64592;52.168;21.040;2023-11-25T17:08:34;6.70;;;3.22;;
75912;SDS011;64592;52.168;21.040;2023-11-25T17:13:36;6.88;;;3.80;;
75912;SDS011;64592;52.168;21.040;2023-11-25T17:18:39;6.35;;;3.90;;
75912;SDS011;64592;52.168;21.040;2023-11-25T17:23:41;9.32;;;3.53;;
75912;SDS011;64592;52.168;21.040;2023-11-25T17:28:43;5.18;;;3.83;;
75912;SDS011;64592;52.168;21.040;2023-11-25T17:33:46;5.72;;;3.58;;
75912;SDS011;64592;52.168;21.040;2023-11-25T17:38:47;6.20;;;3.88;;
75912;SDS011;64592;52.168;21.040;2023-11-25T17:43:49;6.72;;;3.83;;
75912;SDS011;64592;52.168;21.040;2023-11-25T17:48:52;8.52;;;3.92;;
75912;SDS011;64592;52.168;21.040;2023-11-25T17:53:54;5.00;;;3.28;;
75912;SDS011;64592;52.168;21.040;2023-11-25T17:58:57;7.13;;;4.15;;
75912;SDS011;64592;52.168;21.040;2023-11-25T18:04:00;8.52;;;4.40;;
75912;SDS011;64592;52.168;21.040;2023-11-25T18:09:03;6.57;;;4.35;;
75912;SDS011;64592;52.168;21.040;2023-11-25T18:14:05;9.00;;;4.72;;
75912;SDS011;64592;52.168;21.040;2023-11-25T18:19:18;9.02;;;5.00;;
75912;SDS011;64592;52.168;21.040;2023-11-25T18:24:20;11.90;;;4.80;;
75912;SDS011;64592;52.168;21.040;2023-11-25T18:29:22;8.65;;;4.25;;
75912;SDS011;64592;52.168;21.040;2023-11-25T18:34:25;9.60;;;4.65;;
75912;SDS011;64592;52.168;21.040;2023-11-25T18:39:27;11.00;;;4.78;;
75912;SDS011;64592;52.168;21.040;2023-11-25T18:44:29;6.38;;;4.88;;
75912;SDS011;64592;52.168;21.040;2023-11-25T18:49:32;6.82;;;4.80;;
75912;SDS011;64592;52.168;21.040;2023-11-25T18:54:33;14.00;;;4.13;;
75912;SDS011;64592;52.168;21.040;2023-11-25T18:59:35;6.70;;;4.03;;
75912;SDS011;64592;52.168;21.040;2023-11-25T19:04:39;8.35;;;5.70;;
75912;SDS011;64592;52.168;21.040;2023-11-25T19:09:40;9.93;;;4.70;;
75912;SDS011;64592;52.168;21.040;2023-11-25T19:14:42;10.65;;;5.40;;
75912;SDS011;64592;52.168;21.040;2023-11-25T19:19:46;6.03;;;4.57;;
75912;SDS011;64592;52.168;21.040;2023-11-25T19:24:48;9.02;;;4.35;;
75912;SDS011;64592;52.168;21.040;2023-11-25T19:29:50;9.93;;;4.40;;
75912;SDS011;64592;52.168;21.040;2023-11-25T19:34:53;6.72;;;4.15;;
75912;SDS011;64592;52.168;21.040;2023-11-25T19:39:54;10.50;;;6.00;;
75912;SDS011;64592;52.168;21.040;2023-11-25T19:44:56;8.77;;;5.57;;
75912;SDS011;64592;52.168;21.040;2023-11-25T19:49:59;9.57;;;5.40;;
75912;SDS011;64592;52.168;21.040;2023-11-25T19:55:01;11.43;;;6.22;;
75912;SDS011;64592;52.168;21.040;2023-11-25T20:00:05;7.65;;;5.28;;
75912;SDS011;64592;52.168;21.040;2023-11-25T20:05:10;11.35;;;5.95;;
75912;SDS011;64592;52.168;21.040;2023-11-25T20:10:12;12.00;;;4.53;;
75912;SDS011;64592;52.168;21.040;2023-11-25T20:15:14;11.85;;;4.60;;
75912;SDS011;64592;52.168;21.040;2023-11-25T20:20:17;5.78;;;3.78;;
75912;SDS011;64592;52.168;21.040;2023-11-25T20:25:20;10.57;;;5.32;;
75912;SDS011;64592;52.168;21.040;2023-11-25T20:30:22;7.68;;;4.05;;
75912;SDS011;64592;52.168;21.040;2023-11-25T20:35:26;8.80;;;4.72;;
75912;SDS011;64592;52.168;21.040;2023-11-25T20:40:27;8.65;;;4.72;;
75912;SDS011;64592;52.168;21.040;2023-11-25T20:45:29;6.25;;;3.90;;
75912;SDS011;64592;52.168;21.040;2023-11-25T20:50:32;6.63;;;3.58;;
75912;SDS011;64592;52.168;21.040;2023-11-25T20:55:35;9.43;;;4.40;;
75912;SDS011;64592;52.168;21.040;2023-11-25T21:00:37;9.52;;;4.78;;
75912;SDS011;64592;52.168;21.040;2023-11-25T21:05:40;6.57;;;3.95;;
75912;SDS011;64592;52.168;21.040;2023-11-25T21:10:42;5.35;;;4.10;;
75912;SDS011;64592;52.168;21.040;2023-11-25T21:15:44;8.20;;;3.88;;
75912;SDS011;64592;52.168;21.040;2023-11-25T21:20:50;6.65;;;3.63;;
75912;SDS011;64592;52.168;21.040;2023-11-25T21:25:53;5.70;;;3.50;;
75912;SDS011;64592;52.168;21.040;2023-11-25T21:30:56;6.88;;;3.35;;
75912;SDS011;64592;52.168;21.040;2023-11-25T21:35:59;6.38;;;3.55;;
75912;SDS011;64592;52.168;21.040;2023-11-25T21:41:01;6.40;;;3.92;;
75912;SDS011;64592;52.168;21.040;2023-11-25T21:46:03;7.32;;;3.30;;
75912;SDS011;64592;52.168;21.040;2023-11-25T21:51:09;8.00;;;3.90;;
75912;SDS011;64592;52.168;21.040;2023-11-25T21:56:11;5.85;;;3.55;;
75912;SDS011;64592;52.168;21.040;2023-11-25T22:01:12;6.63;;;3.88;;
75912;SDS011;64592;52.168;21.040;2023-11-25T22:06:22;6.18;;;3.22;;
75912;SDS011;64592;52.168;21.040;2023-11-25T22:11:24;7.85;;;3.08;;
75912;SDS011;64592;52.168;21.040;2023-11-25T22:16:26;6.97;;;4.18;;
75912;SDS011;64592;52.168;21.040;2023-11-25T22:21:29;5.85;;;3.40;;
75912;SDS011;64592;52.168;21.040;2023-11-25T22:26:31;5.80;;;3.30;;
75912;SDS011;64592;52.168;21.040;2023-11-25T22:31:33;5.97;;;4.20;;
75912;SDS011;64592;52.168;21.040;2023-11-25T22:36:36;5.53;;;2.75;;
75912;SDS011;64592;52.168;21.040;2023-11-25T22:41:38;8.77;;;3.53;;
75912;SDS011;64592;52.168;21.040;2023-11-25T22:46:40;7.38;;;3.20;;
75912;SDS011;64592;52.168;21.040;2023-11-25T22:51:44;6.22;;;3.50;;
75912;SDS011;64592;52.168;21.040;2023-11-25T22:56:46;8.98;;;3.45;;
75912;SDS011;64592;52.168;21.040;2023-11-25T23:01:50;6.90;;;3.65;;
75912;SDS011;64592;52.168;21.040;2023-11-25T23:06:53;7.00;;;3.80;;
75912;SDS011;64592;52.168;21.040;2023-11-25T23:11:55;5.95;;;3.58;;
75912;SDS011;64592;52.168;21.040;2023-11-25T23:16:57;8.38;;;3.90;;
75912;SDS011;64592;52.168;21.040;2023-11-25T23:22:00;6.07;;;3.63;;
75912;SDS011;64592;52.168;21.040;2023-11-25T23:27:02;6.07;;;3.05;;
75912;SDS011;64592;52.168;21.040;2023-11-25T23:32:05;6.38;;;3.40;;
75912;SDS011;64592;52.168;21.040;2023-11-25T23:37:08;8.07;;;4.22;;
75912;SDS011;64592;52.168;21.040;2023-11-25T23:42:12;6.57;;;3.38;;
75912;SDS011;64592;52.168;21.040;2023-11-25T23:47:14;7.50;;;3.80;;
75912;SDS011;64592;52.168;21.040;2023-11-25T23:52:17;5.72;;;3.28;;
75912;SDS011;64592;52.168;21.040;2023-11-25T23:57:19;8.32;;;3.63;;
